Time;durP1;ratioP1;P1;durP2;ratioP2;P2;SDS_P1;SDS_P2;PMS_P1;PMS_P2;Temp;Humidity;BMP_temperature;BMP_pressure;BME280_temperature;BME280_humidity;BME280_pressure;Samples;Min_cycle;Max_cycle;Signal;HPM_P1;HPM_P2
2023/12/25 00:01:24;;;;;;;14.40;8.70;;;;;;;8.40;48.83;93691.41;5017238;28;20043;-78
2023/12/25 00:03:49;;;;;;;14.90;9.00;;;;;;;8.20;49.31;93691.88;5015978;28;20558;-78
2023/12/25 00:06:15;;;;;;;18.50;10.00;;;;;;;8.22;48.99;93689.69;5016358;28;20041;-77
2023/12/25 00:08:40;;;;;;;15.40;8.93;;;;;;;8.02;48.92;93661.06;5014628;28;20445;-78
2023/12/25 00:11:06;;;;;;;22.83;12.90;;;;;;;8.06;49.16;93686.63;5017340;28;20571;-78
2023/12/25 00:13:31;;;;;;;30.98;17.27;;;;;;;8.12;49.21;93687.28;5015221;28;20037;-77
2023/12/25 00:15:57;;;;;;;21.88;15.15;;;;;;;7.97;50.12;93677.06;5013511;28;20083;-77
2023/12/25 00:18:22;;;;;;;23.13;12.15;;;;;;;7.80;50.87;93682.97;5016778;28;20048;-78
2023/12/25 00:20:48;;;;;;;23.80;13.23;;;;;;;7.69;50.83;93687.69;5010598;28;20037;-77
2023/12/25 00:23:13;;;;;;;29.73;16.80;;;;;;;7.73;51.01;93671.25;5015656;28;20541;-81
2023/12/25 00:25:38;;;;;;;30.05;14.13;;;;;;;7.75;50.88;93669.06;5012508;28;20306;-77
2023/12/25 00:28:04;;;;;;;20.92;13.25;;;;;;;7.93;50.39;93674.22;5015905;28;20060;-80
2023/12/25 00:30:30;;;;;;;17.02;10.40;;;;;;;7.88;50.12;93668.25;5014544;28;20124;-77
2023/12/25 00:32:55;;;;;;;17.10;8.90;;;;;;;7.83;50.37;93671.00;5014344;28;20040;-80
2023/12/25 00:35:20;;;;;;;12.43;8.38;;;;;;;7.75;50.16;93653.19;5014589;28;20492;-78
2023/12/25 00:37:46;;;;;;;14.80;8.50;;;;;;;7.83;50.52;93682.38;5017302;28;20064;-76
2023/12/25 00:40:11;;;;;;;15.45;7.55;;;;;;;7.84;50.33;93680.50;5004867;28;20029;-77
2023/12/25 00:42:37;;;;;;;8.85;6.57;;;;;;;7.82;49.85;93667.59;5016501;28;20400;-78
2023/12/25 00:45:02;;;;;;;12.95;7.75;;;;;;;7.56;50.38;93653.31;5013180;28;20124;-77
2023/12/25 00:47:28;;;;;;;12.50;6.40;;;;;;;7.64;50.63;93658.66;5015845;28;20582;-78
2023/12/25 00:49:53;;;;;;;11.00;6.18;;;;;;;7.76;50.04;93668.78;5012616;28;20071;-79
2023/12/25 00:52:19;;;;;;;14.10;6.20;;;;;;;7.81;50.30;93673.97;5012545;28;20570;-79
2023/12/25 00:54:48;;;;;;;13.50;7.25;;;;;;;7.94;50.02;93683.72;5014309;28;20049;-78
2023/12/25 00:57:14;;;;;;;14.20;9.30;;;;;;;7.86;50.21;93673.84;5012005;28;20511;-77
2023/12/25 00:59:40;;;;;;;13.45;9.05;;;;;;;7.73;50.96;93693.97;5012433;28;20034;-77
2023/12/25 01:02:05;;;;;;;18.92;10.80;;;;;;;7.62;51.22;93697.91;5015501;28;20587;-79
2023/12/25 01:04:30;;;;;;;19.63;9.70;;;;;;;7.68;51.12;93680.03;5014135;28;20060;-79
2023/12/25 01:06:56;;;;;;;25.00;10.75;;;;;;;7.61;50.47;93661.91;5011785;28;20564;-79
2023/12/25 01:09:23;;;;;;;20.83;11.40;;;;;;;7.78;50.75;93684.38;5013650;28;20025;-79
2023/12/25 01:11:48;;;;;;;33.10;14.88;;;;;;;7.86;50.62;93675.72;5014976;28;20135;-79
2023/12/25 01:14:14;;;;;;;15.18;9.52;;;;;;;7.68;50.63;93654.34;5012407;28;20033;-80
2023/12/25 01:16:39;;;;;;;17.25;7.38;;;;;;;7.11;52.45;93676.19;5015171;28;20037;-80
2023/12/25 01:19:04;;;;;;;12.50;7.03;;;;;;;7.52;51.22;93682.22;5011641;28;20366;-80
2023/12/25 01:21:32;;;;;;;12.80;6.47;;;;;;;7.51;51.07;93633.03;5015713;28;20021;-80
2023/12/25 01:23:57;;;;;;;12.65;7.22;;;;;;;7.48;51.05;93644.22;5013641;28;20132;-79
2023/12/25 01:26:23;;;;;;;18.02;6.95;;;;;;;7.63;50.73;93656.34;5014556;28;20078;-80
2023/12/25 01:28:48;;;;;;;11.50;6.88;;;;;;;7.73;50.67;93650.06;5013277;28;20489;-79
2023/12/25 01:31:14;;;;;;;15.15;7.28;;;;;;;7.92;50.38;93664.72;5013183;28;20496;-79
2023/12/25 01:33:39;;;;;;;13.50;6.65;;;;;;;7.95;50.24;93653.53;5013805;28;20063;-79
2023/12/25 01:36:06;;;;;;;12.85;6.65;;;;;;;8.05;49.85;93655.94;5013742;28;20072;-78
2023/12/25 01:38:31;;;;;;;14.35;7.13;;;;;;;7.92;49.98;93648.03;5021719;28;20516;-80
2023/12/25 01:40:57;;;;;;;14.55;7.85;;;;;;;8.04;49.80;93645.63;5015232;28;20146;-80
2023/12/25 01:43:22;;;;;;;13.43;6.65;;;;;;;7.91;50.04;93641.97;5016875;28;20033;-79
2023/12/25 01:45:48;;;;;;;10.88;6.75;;;;;;;7.90;49.85;93632.44;5019340;28;20025;-79
2023/12/25 01:48:13;;;;;;;11.43;6.53;;;;;;;7.73;50.61;93646.31;5017494;28;20034;-79
2023/12/25 01:50:40;;;;;;;14.77;6.25;;;;;;;7.86;50.39;93652.66;5014862;28;20100;-78
2023/12/25 01:53:06;;;;;;;20.13;11.27;;;;;;;7.91;49.57;93631.38;5017669;28;20548;-80
2023/12/25 01:55:33;;;;;;;24.23;11.85;;;;;;;7.94;49.94;93659.88;5017755;28;20060;-78
2023/12/25 01:57:58;;;;;;;15.68;8.70;;;;;;;7.56;50.59;93654.09;5017253;28;20128;-79
2023/12/25 02:00:24;;;;;;;42.63;21.17;;;;;;;7.65;50.89;93667.41;5018986;28;20035;-80
2023/12/25 02:02:49;;;;;;;31.60;17.45;;;;;;;7.64;50.68;93645.44;5016232;28;20083;-79
2023/12/25 02:05:16;;;;;;;31.08;16.40;;;;;;;7.70;50.10;93646.91;5020211;28;20451;-79
2023/12/25 02:07:43;;;;;;;37.42;18.63;;;;;;;7.78;50.26;93657.91;5018365;28;20117;-79
2023/12/25 02:10:09;;;;;;;25.30;13.77;;;;;;;7.71;49.92;93674.94;5020310;28;20021;-80
2023/12/25 02:12:35;;;;;;;23.90;12.15;;;;;;;7.62;50.18;93660.84;5018411;28;20034;-80
2023/12/25 02:15:02;;;;;;;30.00;17.13;;;;;;;7.37;50.70;93648.16;5012492;28;20041;-79
2023/12/25 02:17:29;;;;;;;25.48;15.95;;;;;;;7.45;51.36;93675.75;5017382;28;20530;-79
2023/12/25 02:19:55;;;;;;;26.52;12.95;;;;;;;7.39;51.56;93677.72;5019453;28;20039;-79
2023/12/25 02:22:21;;;;;;;16.42;7.90;;;;;;;7.34;51.62;93664.59;5015780;28;20048;-79
2023/12/25 02:24:55;;;;;;;15.38;6.07;;;;;;;7.35;51.49;93660.88;5018542;28;20018;-78
2023/12/25 02:27:21;;;;;;;15.52;6.40;;;;;;;7.42;51.06;93648.03;5013112;28;20038;-78
2023/12/25 02:29:46;;;;;;;10.05;5.80;;;;;;;7.39;50.92;93639.91;5015446;28;20471;-78
2023/12/25 02:32:12;;;;;;;12.35;5.93;;;;;;;7.62;50.44;93654.78;5015479;28;20464;-79
2023/12/25 02:34:38;;;;;;;13.27;6.43;;;;;;;7.52;50.41;93624.00;5017830;28;20048;-79
2023/12/25 02:37:03;;;;;;;9.15;5.65;;;;;;;7.44;50.77;93664.38;5017019;28;21476;-79
2023/12/25 02:39:29;;;;;;;10.95;6.25;;;;;;;7.45;50.39;93655.38;5017041;28;20028;-79
2023/12/25 02:41:54;;;;;;;11.18;5.97;;;;;;;7.63;49.95;93675.63;5018201;28;20660;-78
2023/12/25 02:44:21;;;;;;;18.38;6.57;;;;;;;7.37;50.39;93648.16;5017735;28;20063;-78
2023/12/25 02:46:46;;;;;;;18.00;9.13;;;;;;;7.43;50.37;93659.41;5018364;28;20033;-78
2023/12/25 02:49:12;;;;;;;13.90;7.07;;;;;;;7.40;50.80;93650.19;5012275;28;20028;-79
2023/12/25 02:51:37;;;;;;;13.95;7.95;;;;;;;7.52;50.41;93663.72;5008657;28;20033;-79
2023/12/25 02:54:03;;;;;;;10.18;5.78;;;;;;;7.31;51.09;93670.50;5015233;28;20133;-78
2023/12/25 02:56:28;;;;;;;11.63;5.93;;;;;;;7.24;51.06;93648.94;5016190;28;20033;-79
2023/12/25 02:58:54;;;;;;;10.52;5.93;;;;;;;7.28;50.86;93649.94;5016210;28;20056;-78
2023/12/25 03:01:19;;;;;;;12.95;4.75;;;;;;;7.45;50.58;93668.59;5011377;28;20464;-79
2023/12/25 03:03:44;;;;;;;11.82;6.50;;;;;;;7.10;51.71;93679.91;5016542;28;20032;-79
2023/12/25 03:06:10;;;;;;;10.43;6.63;;;;;;;7.31;51.34;93681.06;5017860;28;20404;-79
2023/12/25 03:08:35;;;;;;;12.50;6.50;;;;;;;7.46;50.69;93677.34;5017392;28;20088;-79
2023/12/25 03:11:00;;;;;;;9.68;6.65;;;;;;;7.61;50.50;93674.38;5016401;28;20971;-78
2023/12/25 03:13:26;;;;;;;13.25;5.93;;;;;;;7.56;50.41;93662.03;5019516;28;20037;-79
2023/12/25 03:15:51;;;;;;;11.18;5.85;;;;;;;7.30;50.95;93674.22;5016188;28;20021;-79
2023/12/25 03:18:17;;;;;;;19.55;9.43;;;;;;;7.24;51.06;93672.72;5015964;28;20536;-78
2023/12/25 03:20:43;;;;;;;17.08;9.77;;;;;;;7.24;51.09;93675.38;5015516;28;20040;-78
2023/12/25 03:23:08;;;;;;;35.00;15.70;;;;;;;7.20;50.87;93680.47;5017874;28;20479;-79
2023/12/25 03:25:34;;;;;;;29.58;16.80;;;;;;;7.10;51.60;93701.06;5017539;28;20112;-79
2023/12/25 03:27:59;;;;;;;19.63;12.13;;;;;;;7.01;51.51;93692.22;5012387;28;20270;-78
2023/12/25 03:30:25;;;;;;;15.65;8.60;;;;;;;6.96;51.36;93684.41;5018600;28;20053;-79
2023/12/25 03:32:50;;;;;;;16.75;8.57;;;;;;;7.13;51.25;93705.78;5016749;28;20424;-79
2023/12/25 03:35:15;;;;;;;12.25;7.50;;;;;;;7.15;51.16;93695.66;5015823;28;20107;-79
2023/12/25 03:37:41;;;;;;;12.57;8.52;;;;;;;7.23;50.85;93701.06;5014378;28;20584;-79
2023/12/25 03:40:07;;;;;;;10.30;6.20;;;;;;;7.25;50.65;93704.19;5018579;28;20029;-80
2023/12/25 03:42:33;;;;;;;8.07;5.70;;;;;;;7.18;51.00;93701.19;5016157;28;20090;-78
2023/12/25 03:44:59;;;;;;;13.07;5.75;;;;;;;7.17;50.95;93712.81;5017538;28;20292;-78
2023/12/25 03:47:24;;;;;;;8.30;4.90;;;;;;;6.82;51.77;93692.31;5016139;28;20412;-78
2023/12/25 03:49:50;;;;;;;13.35;5.10;;;;;;;7.04;51.45;93710.19;5017204;28;20029;-78
2023/12/25 03:52:15;;;;;;;10.65;5.28;;;;;;;7.18;51.03;93705.69;5014268;28;20059;-78
2023/12/25 03:54:41;;;;;;;13.43;4.88;;;;;;;6.71;52.32;93736.63;5014898;28;20044;-78
2023/12/25 03:57:10;;;;;;;13.52;5.22;;;;;;;7.03;51.75;93745.63;5015175;28;20033;-79
2023/12/25 03:59:39;;;;;;;10.50;5.15;;;;;;;5.81;52.79;93633.22;5016841;28;20034;-78
2023/12/25 04:02:04;;;;;;;11.80;5.65;;;;;;;6.10;54.46;93730.72;5016162;28;20056;-78
2023/12/25 04:04:30;;;;;;;8.95;5.00;;;;;;;6.47;53.17;93722.78;5015465;28;20509;-79
2023/12/25 04:06:55;;;;;;;12.43;6.40;;;;;;;6.02;53.99;93723.47;5015923;28;20036;-79
2023/12/25 04:09:20;;;;;;;16.45;6.43;;;;;;;6.33;53.62;93743.06;5014694;28;20029;-78
2023/12/25 04:11:46;;;;;;;12.38;6.25;;;;;;;5.70;55.12;93730.22;5018162;28;20549;-78
2023/12/25 04:14:11;;;;;;;10.32;5.57;;;;;;;5.26;56.91;93733.13;5015134;28;20041;-79
2023/12/25 04:16:36;;;;;;;14.48;6.28;;;;;;;5.75;55.21;93710.91;5017065;28;20426;-79
2023/12/25 04:19:02;;;;;;;13.32;6.32;;;;;;;6.00;54.51;93727.16;5009905;28;20618;-79
2023/12/25 04:21:30;;;;;;;12.70;6.38;;;;;;;5.96;55.23;93736.75;5015328;28;20037;-79
2023/12/25 04:23:57;;;;;;;13.23;6.65;;;;;;;6.40;53.80;93738.22;5012926;28;20037;-79
2023/12/25 04:26:23;;;;;;;14.80;7.28;;;;;;;5.96;54.46;93746.50;5017762;28;20090;-78
2023/12/25 04:28:50;;;;;;;10.50;6.65;;;;;;;5.94;54.91;93738.06;5006544;28;20025;-79
2023/12/25 04:31:16;;;;;;;13.85;6.97;;;;;;;6.23;54.07;93732.66;5006456;28;20041;-78
2023/12/25 04:33:41;;;;;;;11.52;6.70;;;;;;;5.96;54.77;93736.75;5029644;28;20033;-79
2023/12/25 04:36:10;;;;;;;9.45;5.68;;;;;;;6.19;53.84;93700.00;5012120;28;20056;-79
2023/12/25 04:38:39;;;;;;;12.52;6.07;;;;;;;6.46;52.89;93715.91;5016263;28;20064;-79
2023/12/25 04:41:05;;;;;;;11.55;5.63;;;;;;;6.14;53.87;93731.72;5014666;28;20033;-79
2023/12/25 04:43:30;;;;;;;10.70;5.55;;;;;;;6.28;53.93;93716.75;5015690;28;20562;-79
2023/12/25 04:45:56;;;;;;;10.40;4.88;;;;;;;6.39;53.38;93718.16;5014274;28;20086;-79
2023/12/25 04:48:21;;;;;;;9.70;5.45;;;;;;;6.29;52.73;93711.19;5013493;28;20022;-78
2023/12/25 04:50:47;;;;;;;13.80;6.88;;;;;;;6.14;53.43;93705.31;5016477;28;20042;-77
2023/12/25 04:53:12;;;;;;;19.85;9.13;;;;;;;6.26;53.47;93732.13;5015941;28;20416;-79
2023/12/25 04:55:38;;;;;;;21.50;9.40;;;;;;;5.63;55.04;93732.41;5016720;28;20042;-79
2023/12/25 04:58:03;;;;;;;15.95;7.88;;;;;;;5.29;56.09;93731.78;5016182;28;20029;-79
2023/12/25 05:00:30;;;;;;;13.93;7.15;;;;;;;5.12;56.66;93751.50;5020081;28;20018;-79
2023/12/25 05:02:55;;;;;;;16.58;7.47;;;;;;;5.14;56.76;93724.81;5013731;28;20105;-78
2023/12/25 05:05:20;;;;;;;16.75;7.05;;;;;;;3.65;61.71;93730.00;5012020;28;20044;-77
2023/12/25 05:07:46;;;;;;;20.70;7.93;;;;;;;4.63;59.89;93753.56;5016233;28;20096;-77
2023/12/25 05:10:11;;;;;;;12.77;6.28;;;;;;;5.07;58.15;93729.66;5014241;28;20087;-78
2023/12/25 05:12:37;;;;;;;15.02;6.88;;;;;;;5.48;56.75;93745.81;5015132;28;20385;-78
2023/12/25 05:15:05;;;;;;;12.32;6.57;;;;;;;5.28;56.56;93693.31;5015385;28;20053;-78
2023/12/25 05:17:31;;;;;;;18.67;9.90;;;;;;;5.66;56.52;93731.88;5014896;28;20530;-77
2023/12/25 05:19:56;;;;;;;13.30;7.97;;;;;;;5.57;56.60;93733.56;5019634;28;20037;-78
2023/12/25 05:22:22;;;;;;;11.52;6.85;;;;;;;5.92;55.53;93722.53;5018874;28;20046;-77
2023/12/25 05:24:47;;;;;;;11.15;5.18;;;;;;;5.62;55.67;93736.16;5021422;28;20025;-79
2023/12/25 05:27:12;;;;;;;10.55;5.82;;;;;;;5.75;55.46;93750.47;5018966;28;20153;-78
2023/12/25 05:29:38;;;;;;;17.65;7.13;;;;;;;5.80;55.34;93758.34;5015727;28;20046;-78
2023/12/25 05:32:04;;;;;;;16.20;6.47;;;;;;;5.87;55.20;93764.81;5020127;28;20040;-79
2023/12/25 05:34:29;;;;;;;12.82;5.57;;;;;;;5.91;55.14;93771.13;5018629;28;20584;-78
2023/12/25 05:36:55;;;;;;;18.55;8.05;;;;;;;5.90;54.42;93753.72;5016671;28;20029;-78
2023/12/25 05:39:20;;;;;;;9.10;4.97;;;;;;;5.99;54.36;93741.44;5013925;28;20407;-78
2023/12/25 05:41:46;;;;;;;24.05;11.18;;;;;;;6.21;53.95;93738.25;5016179;28;20069;-78
2023/12/25 05:44:11;;;;;;;10.75;4.70;;;;;;;5.62;55.12;93743.28;5019929;28;20053;-79
2023/12/25 05:46:37;;;;;;;10.10;5.43;;;;;;;5.94;54.90;93732.78;5014366;28;20214;-79
2023/12/25 05:49:03;;;;;;;11.82;4.53;;;;;;;6.10;54.71;93744.72;5018517;28;20021;-78
2023/12/25 05:51:29;;;;;;;13.07;8.63;;;;;;;5.80;54.49;93756.47;5017343;28;20029;-78
2023/12/25 05:53:55;;;;;;;9.88;6.55;;;;;;;5.41;56.21;93761.19;5010726;28;20563;-78
2023/12/25 05:56:20;;;;;;;10.45;6.53;;;;;;;5.76;55.04;93747.56;5018694;28;20041;-78
2023/12/25 05:58:46;;;;;;;12.52;8.05;;;;;;;6.23;53.97;93756.44;5018867;28;20477;-77
2023/12/25 06:01:13;;;;;;;29.73;13.77;;;;;;;6.35;53.53;93760.22;5019096;28;20032;-78
2023/12/25 06:03:41;;;;;;;14.38;8.02;;;;;;;6.37;53.20;93752.78;5017424;28;20033;-77
2023/12/25 06:06:07;;;;;;;12.43;7.25;;;;;;;6.49;53.12;93747.06;5019240;28;20638;-80
2023/12/25 06:08:33;;;;;;;12.82;5.85;;;;;;;6.58;52.52;93745.31;5019063;28;20037;-78
2023/12/25 06:10:58;;;;;;;11.68;7.07;;;;;;;6.53;52.17;93739.34;5016097;28;20456;-76
2023/12/25 06:13:24;;;;;;;12.20;6.68;;;;;;;5.96;53.60;93768.41;5016327;28;20472;-78
2023/12/25 06:15:50;;;;;;;11.35;6.32;;;;;;;5.36;55.59;93769.94;5017483;28;20060;-78
2023/12/25 06:18:15;;;;;;;14.00;7.45;;;;;;;5.99;54.41;93804.78;5016565;28;20475;-79
2023/12/25 06:20:41;;;;;;;15.02;7.60;;;;;;;6.11;54.28;93816.81;5014153;28;20037;-78
2023/12/25 06:23:07;;;;;;;16.52;8.73;;;;;;;6.44;53.09;93852.81;5018381;28;20404;-78
2023/12/25 06:25:32;;;;;;;16.30;8.60;;;;;;;6.39;53.06;93842.31;5017570;28;20467;-78
2023/12/25 06:27:57;;;;;;;13.85;6.85;;;;;;;6.48;53.23;93856.44;5017686;28;22064;-77
2023/12/25 06:30:23;;;;;;;12.77;8.18;;;;;;;6.71;52.55;93847.66;5016271;28;20056;-78
2023/12/25 06:32:48;;;;;;;13.27;7.38;;;;;;;6.85;52.15;93837.91;5016583;28;20041;-79
2023/12/25 06:35:14;;;;;;;16.63;6.43;;;;;;;6.95;52.07;93815.03;5015954;28;20033;-78
2023/12/25 06:37:39;;;;;;;12.23;7.68;;;;;;;6.93;51.74;93796.03;5017307;28;20132;-78
2023/12/25 06:40:05;;;;;;;11.68;6.95;;;;;;;7.17;51.06;93796.66;5018065;28;20059;-78
2023/12/25 06:42:31;;;;;;;10.48;5.00;;;;;;;7.16;50.96;93768.66;5018037;28;20036;-79
2023/12/25 06:44:56;;;;;;;7.60;4.40;;;;;;;7.25;51.14;93767.69;5015323;28;20042;-78
2023/12/25 06:47:22;;;;;;;9.07;4.90;;;;;;;7.16;50.96;93750.91;5018699;28;20550;-78
2023/12/25 06:49:47;;;;;;;12.88;9.15;;;;;;;7.24;50.60;93781.19;5015567;28;20034;-78
2023/12/25 06:52:12;;;;;;;13.20;6.65;;;;;;;6.80;51.65;93782.47;5018272;28;20025;-78
2023/12/25 06:54:38;;;;;;;10.73;5.55;;;;;;;7.28;51.29;93827.16;5019324;28;20026;-79
2023/12/25 06:57:04;;;;;;;11.82;6.22;;;;;;;7.38;50.79;93816.41;5014934;28;20520;-78
2023/12/25 06:59:29;;;;;;;13.45;8.05;;;;;;;7.47;50.69;93817.28;5017647;28;20491;-79
2023/12/25 07:01:54;;;;;;;11.13;7.18;;;;;;;7.17;51.07;93818.63;5015759;28;20397;-78
2023/12/25 07:04:20;;;;;;;17.48;7.32;;;;;;;7.03;51.86;93838.19;5017899;28;20034;-78
2023/12/25 07:06:46;;;;;;;11.85;6.47;;;;;;;7.40;51.33;93838.06;5018371;28;20029;-77
2023/12/25 07:09:14;;;;;;;11.82;7.25;;;;;;;7.15;51.93;93835.84;5024734;28;20033;-79
2023/12/25 07:11:41;;;;;;;14.82;7.03;;;;;;;7.51;51.06;93833.38;5015790;28;20042;-78
2023/12/25 07:14:09;;;;;;;12.75;7.72;;;;;;;7.40;51.51;93822.16;5015843;28;20068;-79
2023/12/25 07:16:35;;;;;;;16.17;9.07;;;;;;;7.54;50.87;93807.09;5017033;28;20029;-79
2023/12/25 07:19:00;;;;;;;12.68;8.30;;;;;;;7.60;50.69;93837.69;5013350;28;20021;-78
2023/12/25 07:21:26;;;;;;;18.33;9.75;;;;;;;7.06;52.17;93827.78;5018696;28;20026;-79
2023/12/25 07:23:52;;;;;;;17.52;8.10;;;;;;;6.99;52.48;93826.63;5015425;28;20132;-79
2023/12/25 07:26:18;;;;;;;19.23;8.20;;;;;;;6.98;52.30;93836.41;5019143;28;20037;-79
2023/12/25 07:28:44;;;;;;;10.05;6.47;;;;;;;7.28;51.65;93827.16;5016946;28;20921;-79
2023/12/25 07:31:10;;;;;;;20.60;7.13;;;;;;;7.53;51.37;93837.28;5017257;28;20045;-78
2023/12/25 07:33:36;;;;;;;11.73;5.63;;;;;;;7.83;50.43;93835.16;5016028;28;20424;-78
2023/12/25 07:36:02;;;;;;;12.00;6.68;;;;;;;7.94;49.76;93834.66;5015444;28;20320;-78
2023/12/25 07:38:28;;;;;;;13.93;7.20;;;;;;;8.03;49.49;93838.19;5014210;28;20551;-78
2023/12/25 07:40:57;;;;;;;14.38;7.05;;;;;;;7.26;51.06;93810.78;5015978;28;20033;-78
2023/12/25 07:43:24;;;;;;;16.42;6.63;;;;;;;7.47;51.81;93837.69;5015543;28;20416;-77
2023/12/25 07:45:50;;;;;;;11.50;5.93;;;;;;;7.75;50.68;93838.50;5017083;28;20021;-78
2023/12/25 07:48:16;;;;;;;13.80;6.65;;;;;;;7.62;50.85;93856.72;5014947;28;20041;-78
2023/12/25 07:50:42;;;;;;;12.68;6.45;;;;;;;7.81;50.51;93858.50;5015239;28;20737;-77
2023/12/25 07:53:07;;;;;;;11.18;5.80;;;;;;;8.04;50.28;93846.91;5016994;28;20033;-78
2023/12/25 07:55:35;;;;;;;11.32;5.57;;;;;;;8.32;49.82;93851.09;5017394;28;20496;-79
2023/12/25 07:58:00;;;;;;;12.32;5.43;;;;;;;8.51;49.18;93870.28;5013436;28;20037;-79
2023/12/25 08:00:26;;;;;;;12.52;6.95;;;;;;;8.63;49.01;93866.34;5016592;28;20094;-79
2023/12/25 08:02:52;;;;;;;19.77;8.43;;;;;;;8.67;48.81;93848.75;5016540;28;20382;-78
2023/12/25 08:05:18;;;;;;;15.40;8.70;;;;;;;8.30;49.48;93860.44;5014723;28;20112;-79
2023/12/25 08:07:44;;;;;;;16.67;7.75;;;;;;;8.70;48.92;93854.25;5015297;28;20095;-78
2023/12/25 08:10:11;;;;;;;16.65;7.20;;;;;;;8.87;48.44;93843.00;5017031;28;20112;-78
2023/12/25 08:12:37;;;;;;;11.02;6.45;;;;;;;8.61;48.30;93839.38;5014186;28;20498;-79
2023/12/25 08:15:03;;;;;;;10.18;6.47;;;;;;;8.31;49.15;93852.22;5016193;28;20041;-78
2023/12/25 08:17:28;;;;;;;9.43;5.90;;;;;;;8.59;48.52;93848.41;5013080;28;20049;-79
2023/12/25 08:19:54;;;;;;;16.55;6.20;;;;;;;8.59;49.27;93843.09;5014227;28;20641;-79
2023/12/25 08:22:19;;;;;;;11.82;6.72;;;;;;;8.92;48.58;93846.31;5015507;28;20507;-78
2023/12/25 08:24:49;;;;;;;9.90;6.07;;;;;;;8.79;48.06;93867.59;5019102;28;20419;-78
2023/12/25 08:27:15;;;;;;;16.45;6.38;;;;;;;8.36;49.24;93860.03;5014327;28;20038;-79
2023/12/25 08:29:42;;;;;;;18.48;7.95;;;;;;;7.77;50.44;93858.31;5013697;28;20040;-79
2023/12/25 08:32:07;;;;;;;18.85;8.68;;;;;;;7.71;51.24;93854.94;5013574;28;20140;-78
2023/12/25 08:34:37;;;;;;;12.20;6.30;;;;;;;7.79;50.54;93836.81;5013721;28;20111;-80
2023/12/25 08:37:03;;;;;;;13.68;5.70;;;;;;;7.46;50.77;93834.25;5014925;28;20029;-77
2023/12/25 08:39:31;;;;;;;12.60;5.57;;;;;;;7.39;51.34;93859.50;5017382;28;20056;-78
2023/12/25 08:42:00;;;;;;;18.70;5.93;;;;;;;7.29;51.88;93850.66;5007178;28;20030;-79
2023/12/25 08:44:26;;;;;;;11.32;5.05;;;;;;;7.25;51.64;93870.06;5012554;28;20479;-79
2023/12/25 08:46:51;;;;;;;11.07;4.82;;;;;;;7.36;51.29;93866.16;5016720;28;20116;-80
2023/12/25 08:49:17;;;;;;;7.15;4.28;;;;;;;7.16;50.95;93826.84;5013542;28;20125;-80
2023/12/25 08:51:42;;;;;;;13.43;5.00;;;;;;;7.28;50.98;93832.47;5015764;28;20504;-79
2023/12/25 08:54:08;;;;;;;15.55;7.43;;;;;;;7.39;51.09;93836.47;5014573;28;20566;-79
2023/12/25 08:56:33;;;;;;;17.85;5.80;;;;;;;7.80;50.59;93851.63;5017581;28;20046;-79
2023/12/25 08:59:00;;;;;;;9.20;4.88;;;;;;;7.42;50.68;93841.19;5014675;28;20048;-78
2023/12/25 09:01:26;;;;;;;11.23;4.50;;;;;;;7.30;50.80;93835.59;5014623;28;20061;-80
2023/12/25 09:03:52;;;;;;;10.35;4.38;;;;;;;7.45;50.93;93830.03;5012461;28;20049;-79
2023/12/25 09:06:17;;;;;;;9.23;5.50;;;;;;;7.89;50.23;93823.38;5013750;28;20132;-80
2023/12/25 09:08:42;;;;;;;8.93;5.07;;;;;;;7.92;50.27;93831.56;5011821;28;20404;-79
2023/12/25 09:11:09;;;;;;;9.45;4.85;;;;;;;7.68;50.08;93829.03;5014847;28;20037;-79
2023/12/25 09:13:35;;;;;;;12.88;4.43;;;;;;;7.76;50.24;93818.91;5012658;28;20041;-79
2023/12/25 09:16:01;;;;;;;10.15;4.82;;;;;;;7.75;50.77;93835.84;5012892;28;20030;-79
2023/12/25 09:18:27;;;;;;;14.63;6.38;;;;;;;7.76;50.33;93824.97;5015109;28;20033;-79
2023/12/25 09:20:52;;;;;;;10.68;5.43;;;;;;;8.14;49.58;93833.47;5013873;28;20037;-79
2023/12/25 09:23:18;;;;;;;11.65;5.63;;;;;;;8.54;48.62;93822.00;5014716;28;20149;-77
2023/12/25 09:25:43;;;;;;;9.32;4.28;;;;;;;8.69;47.76;93794.34;5013873;28;20416;-79
2023/12/25 09:28:09;;;;;;;9.93;4.20;;;;;;;8.71;47.48;93786.88;5015680;28;20029;-79
2023/12/25 09:30:34;;;;;;;11.90;4.10;;;;;;;8.77;47.48;93779.59;5013822;28;20049;-80
2023/12/25 09:32:59;;;;;;;11.35;4.00;;;;;;;9.08;47.14;93780.41;5023980;28;20048;-79
2023/12/25 09:35:25;;;;;;;9.32;6.05;;;;;;;8.86;46.57;93777.75;5013155;28;20029;-78
2023/12/25 09:37:50;;;;;;;10.45;4.07;;;;;;;8.79;47.03;93810.03;5015603;28;20129;-79
2023/12/25 09:40:16;;;;;;;16.25;3.20;;;;;;;8.86;45.56;93783.06;5013886;28;20068;-79
2023/12/25 09:42:42;;;;;;;11.20;4.18;;;;;;;8.75;45.60;93809.06;5016103;28;20476;-80
2023/12/25 09:45:10;;;;;;;14.10;4.32;;;;;;;8.89;46.88;93814.31;5012451;28;20029;-80
2023/12/25 09:47:35;;;;;;;7.45;5.40;;;;;;;8.77;46.79;93824.66;5013629;28;20075;-79
2023/12/25 09:50:03;;;;;;;12.85;5.88;;;;;;;8.85;46.83;93816.00;5013833;28;20038;-79
2023/12/25 09:52:29;;;;;;;11.00;5.55;;;;;;;8.81;46.63;93807.84;5014537;28;20033;-79
2023/12/25 09:54:54;;;;;;;10.50;5.25;;;;;;;8.96;46.50;93793.44;5013771;28;20103;-80
2023/12/25 09:57:21;;;;;;;11.60;5.70;;;;;;;8.98;46.68;93804.53;5011876;28;20504;-79
2023/12/25 09:59:52;;;;;;;15.20;4.22;;;;;;;8.68;46.57;93790.13;5006642;28;20041;-78
2023/12/25 10:02:20;;;;;;;21.40;6.35;;;;;;;8.82;46.98;93801.47;5010344;28;20135;-79
2023/12/25 10:04:50;;;;;;;12.65;4.70;;;;;;;8.78;47.30;93794.41;5014637;28;20406;-77
2023/12/25 10:07:16;;;;;;;9.82;4.70;;;;;;;8.92;46.62;93789.81;5015744;28;20060;-80
2023/12/25 10:09:42;;;;;;;9.18;5.10;;;;;;;9.09;46.05;93794.47;5017224;28;20651;-79
2023/12/25 10:12:08;;;;;;;12.50;4.65;;;;;;;9.00;45.88;93779.25;5015586;28;20068;-79
2023/12/25 10:14:34;;;;;;;11.82;4.30;;;;;;;8.79;46.38;93794.13;5017896;28;20447;-78
2023/12/25 10:17:00;;;;;;;8.68;4.80;;;;;;;8.98;46.24;93792.06;5015248;28;20069;-77
2023/12/25 10:19:25;;;;;;;13.55;5.25;;;;;;;9.14;45.93;93784.53;5016729;28;20531;-78
2023/12/25 10:21:53;;;;;;;15.38;7.05;;;;;;;9.43;45.97;93792.81;5017570;28;20116;-78
2023/12/25 10:24:25;;;;;;;20.10;8.45;;;;;;;9.80;45.04;93790.72;5018101;28;20042;-75
2023/12/25 10:26:51;;;;;;;12.20;6.22;;;;;;;9.77;44.82;93778.88;5018823;28;20025;-76
2023/12/25 10:29:16;;;;;;;12.98;6.35;;;;;;;9.71;45.11;93777.44;5016282;28;20389;-79
2023/12/25 10:31:47;;;;;;;9.38;5.05;;;;;;;10.01;43.90;93775.78;5010792;28;20056;-78
2023/12/25 10:34:19;;;;;;;12.00;5.38;;;;;;;10.46;42.94;93776.34;5017630;28;20121;-78
2023/12/25 10:36:47;;;;;;;8.85;4.55;;;;;;;10.80;41.80;93775.56;5018253;28;20136;-79
2023/12/25 10:39:27;;;;;;;7.95;4.30;;;;;;;10.78;41.91;93767.09;5013263;28;20037;-78
2023/12/25 10:41:54;;;;;;;10.30;4.10;;;;;;;10.85;41.17;93762.09;5025184;28;20037;-78
2023/12/25 10:44:20;;;;;;;8.63;4.50;;;;;;;10.98;41.24;93750.47;5018331;28;20618;-77
2023/12/25 10:46:46;;;;;;;9.65;6.75;;;;;;;10.63;41.94;93740.97;5017713;28;20038;-76
2023/12/25 10:49:12;;;;;;;10.00;4.93;;;;;;;11.07;41.47;93716.63;5017291;28;20025;-78
2023/12/25 10:51:46;;;;;;;9.05;5.00;;;;;;;11.05;40.83;93739.34;5015230;28;20144;-78
2023/12/25 10:54:12;;;;;;;8.25;4.55;;;;;;;10.93;40.91;93740.00;5017387;28;20090;-78
2023/12/25 10:56:44;;;;;;;7.60;4.47;;;;;;;10.81;41.67;93731.88;5015816;28;20562;-78
2023/12/25 10:59:16;;;;;;;9.38;4.45;;;;;;;10.60;41.57;93725.66;5017119;28;20030;-78
2023/12/25 11:01:48;;;;;;;8.90;4.40;;;;;;;10.56;41.97;93743.34;5014707;28;20610;-78
2023/12/25 11:04:17;;;;;;;9.70;4.05;;;;;;;10.51;42.71;93746.16;5012979;28;20029;-80
2023/12/25 11:06:44;;;;;;;10.73;4.72;;;;;;;10.48;42.45;93746.78;5016740;28;20519;-79
2023/12/25 11:09:17;;;;;;;8.35;4.47;;;;;;;10.24;42.66;93736.59;5012747;28;20033;-79
2023/12/25 11:11:44;;;;;;;14.82;6.32;;;;;;;10.51;42.52;93748.81;5015873;28;20583;-80
2023/12/25 11:14:11;;;;;;;8.85;5.13;;;;;;;10.64;42.79;93756.63;5013347;28;20116;-78
2023/12/25 11:16:38;;;;;;;12.45;4.80;;;;;;;10.39;42.57;93738.03;5017825;28;20039;-79
2023/12/25 11:19:04;;;;;;;11.55;4.15;;;;;;;10.55;41.97;93752.41;5012457;28;20183;-79
2023/12/25 11:21:32;;;;;;;11.27;5.35;;;;;;;10.63;41.91;93735.66;5019471;28;20021;-79
2023/12/25 11:23:59;;;;;;;10.63;5.40;;;;;;;10.79;41.91;93742.06;5014556;28;20505;-79
2023/12/25 11:26:29;;;;;;;14.75;5.65;;;;;;;10.62;42.00;93742.84;5017268;28;20057;-78
2023/12/25 11:29:07;;;;;;;10.10;4.30;;;;;;;10.91;41.53;93750.16;5017138;28;20437;-78